createdAt,value
2023-02-23T00:01:00.562Z,101188.38
2023-02-23T00:03:32.839Z,101192.31
2023-02-23T00:06:30.118Z,101184.09
2023-02-23T00:12:17.857Z,101190.94
2023-02-23T00:14:56.371Z,101187.34
2023-02-23T00:17:42.345Z,101186.78
2023-02-23T00:20:27.454Z,101186.63
2023-02-23T00:22:56.263Z,101185.84
2023-02-23T00:25:26.304Z,101173.22
2023-02-23T00:27:55.018Z,101175.81
2023-02-23T00:30:21.802Z,101180.34
2023-02-23T00:32:54.895Z,101178.59
2023-02-23T00:35:27.368Z,101177.03
2023-02-23T00:38:11.320Z,101174.00
2023-02-23T00:40:46.911Z,101188.88
2023-02-23T00:43:24.098Z,101178.56
2023-02-23T00:45:54.816Z,101176.47
2023-02-23T00:48:24.846Z,101177.56
2023-02-23T00:51:04.183Z,101172.88
2023-02-23T00:53:31.485Z,101172.41
2023-02-23T00:55:58.883Z,101169.84
2023-02-23T00:58:37.120Z,101173.47
2023-02-23T01:01:13.997Z,101174.94
2023-02-23T01:03:44.901Z,101172.00
2023-02-23T01:06:15.770Z,101163.47
2023-02-23T01:08:53.212Z,101171.44
2023-02-23T01:11:28.727Z,101163.78
2023-02-23T01:13:58.422Z,101163.06
2023-02-23T01:16:52.958Z,101156.81
2023-02-23T01:19:20.373Z,101155.84
2023-02-23T01:22:10.984Z,101155.78
2023-02-23T01:24:46.254Z,101146.38
2023-02-23T01:27:25.973Z,101141.69
2023-02-23T01:29:57.929Z,101145.91
2023-02-23T01:32:27.262Z,101137.69
2023-02-23T01:34:57.187Z,101132.88
2023-02-23T01:37:59.111Z,101134.28
2023-02-23T01:40:39.642Z,101137.56
2023-02-23T01:43:12.076Z,101140.34
2023-02-23T01:45:47.887Z,101132.78
2023-02-23T01:48:32.663Z,101134.50
2023-02-23T01:51:31.402Z,101132.09
2023-02-23T01:54:17.416Z,101135.81
2023-02-23T01:57:06.689Z,101139.06
2023-02-23T01:59:42.079Z,101143.78
2023-02-23T02:02:09.430Z,101138.75
2023-02-23T02:04:44.697Z,101137.16
2023-02-23T02:07:17.144Z,101133.13
2023-02-23T02:10:04.600Z,101134.22
2023-02-23T02:12:32.692Z,101129.06
2023-02-23T02:15:00.852Z,101129.13
2023-02-23T02:17:45.318Z,101126.63
2023-02-23T02:20:38.942Z,101117.97
2023-02-23T02:23:49.208Z,101118.09
2023-02-23T02:26:33.943Z,101120.59
2023-02-23T02:29:32.389Z,101110.19
2023-02-23T02:32:31.976Z,101115.25
2023-02-23T02:35:46.972Z,101112.81
2023-02-23T02:38:40.352Z,101117.34
2023-02-23T02:42:05.736Z,101117.31
2023-02-23T02:44:57.782Z,101127.78
2023-02-23T02:47:52.893Z,101120.88
2023-02-23T02:50:51.370Z,101117.34
2023-02-23T02:53:34.183Z,101112.94
2023-02-23T02:56:27.618Z,101113.72
2023-02-23T03:01:56.717Z,101111.19
2023-02-23T03:04:44.116Z,101115.41
2023-02-23T03:08:08.087Z,101117.91
2023-02-23T03:11:09.781Z,101121.06
2023-02-23T03:14:20.605Z,101117.69
2023-02-23T03:17:43.427Z,101120.00
2023-02-23T03:20:40.833Z,101121.34
2023-02-23T03:23:32.417Z,101120.22
2023-02-23T03:26:56.619Z,101118.88
2023-02-23T03:30:33.632Z,101130.13
2023-02-23T03:36:45.449Z,101118.91
2023-02-23T03:42:54.215Z,101112.28
2023-02-23T03:45:44.844Z,101109.31
2023-02-23T03:48:42.747Z,101110.63
2023-02-23T03:51:37.533Z,101121.19
2023-02-23T03:54:50.196Z,101118.81
2023-02-23T03:57:43.912Z,101119.84
2023-02-23T04:00:39.220Z,101123.47
2023-02-23T04:03:42.067Z,101122.41
2023-02-23T04:06:37.106Z,101130.59
2023-02-23T04:09:25.968Z,101134.03
2023-02-23T04:12:33.997Z,101132.16
2023-02-23T04:15:08.618Z,101125.28
2023-02-23T04:17:47.149Z,101114.66
2023-02-23T04:20:18.377Z,101130.88
2023-02-23T04:22:45.298Z,101123.75
2023-02-23T04:25:17.445Z,101126.13
2023-02-23T04:27:49.234Z,101128.69
2023-02-23T04:30:16.260Z,101128.00
2023-02-23T04:32:47.696Z,101126.06
2023-02-23T04:35:22.783Z,101123.69
2023-02-23T04:37:56.580Z,101129.03
2023-02-23T04:40:31.228Z,101133.13
2023-02-23T04:43:03.517Z,101119.84
2023-02-23T04:45:31.530Z,101113.00
2023-02-23T04:48:06.914Z,101113.44
2023-02-23T04:50:35.441Z,101116.63
2023-02-23T04:53:09.950Z,101118.84
2023-02-23T04:55:40.096Z,101122.59
2023-02-23T04:58:17.155Z,101120.03
2023-02-23T05:00:44.290Z,101123.09
2023-02-23T05:03:13.005Z,101120.31
2023-02-23T05:05:43.153Z,101135.81
2023-02-23T05:08:15.001Z,101139.97
2023-02-23T05:10:55.236Z,101135.81
2023-02-23T05:13:24.990Z,101132.16
2023-02-23T05:15:55.932Z,101141.38
2023-02-23T05:18:22.735Z,101137.34
2023-02-23T05:21:21.590Z,101121.78
2023-02-23T05:23:51.398Z,101131.56
2023-02-23T05:26:18.953Z,101134.38
2023-02-23T05:28:46.049Z,101131.69
2023-02-23T05:31:13.313Z,101128.28
2023-02-23T05:33:43.008Z,101132.72
2023-02-23T05:36:38.321Z,101125.22
2023-02-23T05:39:10.695Z,101121.84
2023-02-23T05:41:37.674Z,101123.72
2023-02-23T05:44:07.712Z,101129.06
2023-02-23T05:46:38.103Z,101134.31
2023-02-23T05:49:12.644Z,101126.44
2023-02-23T05:51:41.274Z,101132.75
2023-02-23T05:54:15.397Z,101131.03
2023-02-23T05:56:49.129Z,101130.13
2023-02-23T05:59:38.057Z,101144.25
2023-02-23T06:02:06.419Z,101139.72
2023-02-23T06:04:48.357Z,101144.94
2023-02-23T06:07:31.166Z,101146.72
2023-02-23T06:10:06.210Z,101159.25
2023-02-23T06:12:42.047Z,101152.91
2023-02-23T06:15:09.991Z,101156.38
2023-02-23T06:17:39.670Z,101149.44
2023-02-23T06:20:07.443Z,101159.13
2023-02-23T06:22:34.348Z,101155.53
2023-02-23T06:25:14.749Z,101161.44
2023-02-23T06:27:48.867Z,101162.28
2023-02-23T06:30:18.602Z,101165.81
2023-02-23T06:32:52.873Z,101168.41
2023-02-23T06:35:29.869Z,101176.31
2023-02-23T06:38:22.047Z,101178.06
2023-02-23T06:40:51.019Z,101171.91
2023-02-23T06:43:26.788Z,101177.72
2023-02-23T06:45:59.901Z,101186.53
2023-02-23T06:48:30.050Z,101187.38
2023-02-23T06:51:07.557Z,101187.97
2023-02-23T06:53:34.736Z,101183.47
2023-02-23T06:56:14.089Z,101189.66
2023-02-23T06:58:43.297Z,101192.38
2023-02-23T07:01:10.363Z,101195.94
2023-02-23T07:03:37.184Z,101196.53
2023-02-23T07:06:05.910Z,101202.72
2023-02-23T07:08:36.149Z,101202.69
2023-02-23T07:11:18.442Z,101193.03
2023-02-23T07:13:48.855Z,101204.63
2023-02-23T07:16:20.658Z,101208.97
2023-02-23T07:18:50.429Z,101209.03
2023-02-23T07:21:20.699Z,101207.28
2023-02-23T07:23:50.052Z,101210.59
2023-02-23T07:26:27.660Z,101209.78
2023-02-23T07:29:04.258Z,101217.47
2023-02-23T07:31:35.492Z,101213.13
2023-02-23T07:34:05.178Z,101216.63
2023-02-23T07:36:36.281Z,101213.28
2023-02-23T07:39:17.255Z,101214.09
2023-02-23T07:41:48.291Z,101213.19
2023-02-23T07:44:16.122Z,101214.03
2023-02-23T07:46:46.633Z,101226.13
2023-02-23T07:49:16.653Z,101222.50
2023-02-23T07:52:00.284Z,101221.63
2023-02-23T07:54:36.528Z,101212.09
2023-02-23T07:57:05.844Z,101219.81
2023-02-23T07:59:36.040Z,101226.69
2023-02-23T08:02:02.891Z,101222.13
2023-02-23T08:04:42.104Z,101223.53
2023-02-23T08:07:17.156Z,101227.22
2023-02-23T08:09:44.125Z,101220.88
2023-02-23T08:12:21.961Z,101219.22
2023-02-23T08:14:51.272Z,101228.00
2023-02-23T08:17:21.220Z,101228.09
2023-02-23T08:19:49.910Z,101221.75
2023-02-23T08:22:19.135Z,101227.88
2023-02-23T08:24:49.235Z,101226.81
2023-02-23T08:27:38.615Z,101225.84
2023-02-23T08:30:10.966Z,101224.06
2023-02-23T08:32:46.850Z,101218.47
2023-02-23T08:35:42.418Z,101221.47
2023-02-23T08:38:23.848Z,101223.31
2023-02-23T08:41:28.496Z,101220.66
2023-02-23T08:44:06.337Z,101224.41
2023-02-23T08:46:36.422Z,101224.44
2023-02-23T08:49:15.333Z,101222.50
2023-02-23T08:51:53.399Z,101230.47
2023-02-23T08:54:24.436Z,101224.09
2023-02-23T08:59:35.614Z,101227.34
2023-02-23T09:02:25.422Z,101230.78
2023-02-23T09:05:15.122Z,101223.66
2023-02-23T09:07:56.025Z,101225.66
2023-02-23T09:10:31.470Z,101230.88
2023-02-23T09:13:01.306Z,101231.16
2023-02-23T09:15:37.965Z,101232.44
2023-02-23T09:18:20.593Z,101226.84
2023-02-23T09:21:08.377Z,101233.03
2023-02-23T09:23:46.924Z,101221.56
2023-02-23T09:26:21.857Z,101223.28
2023-02-23T09:31:40.367Z,101238.38
2023-02-23T09:37:07.733Z,101240.72
2023-02-23T09:39:38.632Z,101234.81
2023-02-23T09:42:28.912Z,101236.28
2023-02-23T09:45:23.697Z,101230.09
2023-02-23T09:48:13.859Z,101232.13
2023-02-23T09:50:53.617Z,101235.28
2023-02-23T09:53:38.580Z,101236.84
2023-02-23T09:56:24.137Z,101234.50
2023-02-23T09:58:53.548Z,101233.44
2023-02-23T10:01:48.586Z,101220.94
2023-02-23T10:05:24.186Z,101228.78
2023-02-23T10:08:02.783Z,101231.50
2023-02-23T10:10:38.347Z,101234.84
2023-02-23T10:13:27.790Z,101237.28
2023-02-23T10:16:24.852Z,101238.91
2023-02-23T10:19:21.942Z,101246.78
2023-02-23T10:22:02.780Z,101239.97
2023-02-23T10:25:10.466Z,101248.59
2023-02-23T10:27:44.423Z,101246.19
2023-02-23T10:30:41.794Z,101240.84
2023-02-23T10:33:30.495Z,101244.72
2023-02-23T10:38:58.634Z,101247.41
2023-02-23T10:41:32.514Z,101242.22
2023-02-23T10:44:20.984Z,101245.19
2023-02-23T10:50:01.727Z,101248.13
2023-02-23T10:52:41.655Z,101248.66
2023-02-23T10:55:24.435Z,101248.28
2023-02-23T10:58:12.474Z,101250.91
2023-02-23T11:01:07.010Z,101240.88
2023-02-23T11:03:42.936Z,101246.00
2023-02-23T11:06:33.798Z,101241.50
2023-02-23T11:09:33.050Z,101235.03
2023-02-23T11:12:37.355Z,101236.72
2023-02-23T11:15:48.188Z,101231.41
2023-02-23T11:18:31.057Z,101229.53
2023-02-23T11:21:03.172Z,101233.16
2023-02-23T11:23:37.833Z,101231.75
2023-02-23T11:26:27.377Z,101232.47
2023-02-23T11:29:09.960Z,101225.47
2023-02-23T11:31:47.548Z,101221.69
2023-02-23T11:34:36.478Z,101221.88
2023-02-23T11:37:24.695Z,101227.16
2023-02-23T11:40:09.791Z,101222.63
2023-02-23T11:42:41.334Z,101216.75
2023-02-23T11:45:38.351Z,101205.91
2023-02-23T11:48:54.895Z,101210.28
2023-02-23T11:51:59.195Z,101209.53
2023-02-23T11:54:35.898Z,101196.78
2023-02-23T11:57:10.808Z,101200.34
2023-02-23T11:59:48.065Z,101204.03
2023-02-23T12:02:44.788Z,101193.84
2023-02-23T12:05:31.779Z,101202.81
2023-02-23T12:08:27.750Z,101196.50
2023-02-23T12:11:05.132Z,101186.94
2023-02-23T12:14:06.909Z,101180.66
2023-02-23T12:16:49.195Z,101184.13
2023-02-23T12:19:34.877Z,101179.50
2023-02-23T12:22:35.201Z,101181.34
2023-02-23T12:25:05.199Z,101178.47
2023-02-23T12:28:01.407Z,101175.81
2023-02-23T12:30:48.736Z,101169.75
2023-02-23T12:33:23.890Z,101175.78
2023-02-23T12:36:32.508Z,101172.59
2023-02-23T12:41:48.086Z,101171.25
2023-02-23T12:44:35.853Z,101169.06
2023-02-23T12:47:15.214Z,101161.25
2023-02-23T12:49:51.514Z,101162.41
2023-02-23T12:52:25.896Z,101162.09
2023-02-23T12:55:02.851Z,101169.47
2023-02-23T12:57:47.671Z,101161.06
2023-02-23T13:00:35.635Z,101167.72
2023-02-23T13:03:45.970Z,101152.97
2023-02-23T13:06:32.913Z,101164.06
2023-02-23T13:09:51.695Z,101159.47
2023-02-23T13:12:45.123Z,101161.78
2023-02-23T13:15:24.301Z,101162.06
2023-02-23T13:18:06.659Z,101152.31
2023-02-23T13:20:46.473Z,101161.00
2023-02-23T13:24:01.629Z,101153.59
2023-02-23T13:26:49.493Z,101150.66
2023-02-23T13:29:46.052Z,101150.97
2023-02-23T13:32:29.511Z,101157.16
2023-02-23T13:35:18.060Z,101155.63
2023-02-23T13:38:17.476Z,101157.06
2023-02-23T13:41:27.228Z,101156.25
2023-02-23T13:44:16.053Z,101151.53
2023-02-23T13:47:09.012Z,101152.47
2023-02-23T13:50:18.769Z,101152.69
2023-02-23T13:52:58.453Z,101153.88
2023-02-23T13:55:46.931Z,101144.13
2023-02-23T13:58:27.247Z,101156.44
2023-02-23T14:01:24.336Z,101152.44
2023-02-23T14:04:19.834Z,101155.09
2023-02-23T14:07:01.907Z,101160.16
2023-02-23T14:09:37.614Z,101157.44
2023-02-23T14:12:40.383Z,101155.09
2023-02-23T14:15:25.495Z,101152.47
2023-02-23T14:18:00.712Z,101156.34
2023-02-23T14:20:47.257Z,101151.88
2023-02-23T14:23:20.004Z,101158.06
2023-02-23T14:26:05.566Z,101153.50
2023-02-23T14:28:39.191Z,101148.22
2023-02-23T14:31:16.168Z,101155.56
2023-02-23T14:33:42.952Z,101150.09
2023-02-23T14:36:22.108Z,101146.50
2023-02-23T14:39:02.427Z,101150.75
2023-02-23T14:41:58.416Z,101151.72
2023-02-23T14:44:31.496Z,101158.22
2023-02-23T14:47:06.890Z,101160.09
2023-02-23T14:49:42.218Z,101167.97
2023-02-23T14:52:27.873Z,101166.06
2023-02-23T14:55:13.017Z,101164.31
2023-02-23T14:57:52.639Z,101166.34
2023-02-23T15:00:30.475Z,101164.31
2023-02-23T15:06:06.650Z,101166.78
2023-02-23T15:08:49.871Z,101172.00
2023-02-23T15:11:19.634Z,101165.63
2023-02-23T15:13:58.565Z,101163.06
2023-02-23T15:16:36.902Z,101168.25
2023-02-23T15:19:34.436Z,101165.72
2023-02-23T15:22:25.514Z,101166.63
2023-02-23T15:25:07.213Z,101167.25
2023-02-23T15:27:56.014Z,101169.97
2023-02-23T15:30:38.354Z,101165.63
2023-02-23T15:33:11.282Z,101164.13
2023-02-23T15:36:27.707Z,101157.19
2023-02-23T15:39:14.803Z,101158.44
2023-02-23T15:41:49.201Z,101151.34
2023-02-23T15:44:32.300Z,101146.91
2023-02-23T15:47:18.827Z,101150.75
2023-02-23T15:49:47.044Z,101160.34
2023-02-23T15:56:15.734Z,101144.38
2023-02-23T15:59:03.894Z,101143.34
2023-02-23T16:02:01.573Z,101141.72
2023-02-23T16:04:48.766Z,101136.53
2023-02-23T16:07:24.777Z,101149.09
2023-02-23T16:10:06.671Z,101152.66
2023-02-23T16:12:43.556Z,101149.09
2023-02-23T16:15:35.672Z,101147.47
2023-02-23T16:18:10.170Z,101146.53
2023-02-23T16:20:41.831Z,101156.19
2023-02-23T16:23:34.322Z,101150.91
2023-02-23T16:26:30.789Z,101151.19
2023-02-23T16:29:08.011Z,101155.50
2023-02-23T16:31:58.274Z,101159.59
2023-02-23T16:35:26.462Z,101157.88
2023-02-23T16:38:01.250Z,101159.47
2023-02-23T16:40:39.774Z,101150.13
2023-02-23T16:43:06.965Z,101154.28
2023-02-23T16:45:33.952Z,101157.69
2023-02-23T16:48:15.435Z,101163.16
2023-02-23T16:51:11.824Z,101156.16
2023-02-23T16:53:52.566Z,101153.06
2023-02-23T16:56:35.911Z,101161.34
2023-02-23T16:59:22.615Z,101164.88
2023-02-23T17:02:09.909Z,101161.94
2023-02-23T17:04:57.908Z,101156.16
2023-02-23T17:07:30.662Z,101154.91
2023-02-23T17:10:06.466Z,101157.78
2023-02-23T17:12:34.589Z,101161.69
2023-02-23T17:15:19.654Z,101162.47
2023-02-23T17:17:50.847Z,101157.91
2023-02-23T17:20:26.198Z,101162.41
2023-02-23T17:23:08.706Z,101163.25
2023-02-23T17:25:38.614Z,101162.13
2023-02-23T17:28:17.971Z,101158.69
2023-02-23T17:31:25.482Z,101166.00
2023-02-23T17:34:02.964Z,101166.44
2023-02-23T17:36:40.296Z,101169.78
2023-02-23T17:41:45.814Z,101177.00
2023-02-23T17:44:13.079Z,101176.56
2023-02-23T17:46:41.293Z,101179.97
2023-02-23T17:49:08.474Z,101183.66
2023-02-23T17:51:44.003Z,101185.03
2023-02-23T17:54:34.374Z,101180.63
2023-02-23T17:57:23.751Z,101180.47
2023-02-23T17:59:54.214Z,101186.88
2023-02-23T18:02:42.734Z,101181.59
2023-02-23T18:05:23.577Z,101190.56
2023-02-23T18:07:54.303Z,101190.38
2023-02-23T18:10:36.224Z,101194.06
2023-02-23T18:13:09.199Z,101190.75
2023-02-23T18:15:42.649Z,101194.69
2023-02-23T18:18:25.823Z,101198.88
2023-02-23T18:21:03.478Z,101199.34
2023-02-23T18:23:50.295Z,101193.16
2023-02-23T18:26:31.021Z,101198.59
2023-02-23T18:29:21.791Z,101192.88
2023-02-23T18:31:50.077Z,101191.94
2023-02-23T18:34:25.653Z,101188.13
2023-02-23T18:36:55.982Z,101186.50
2023-02-23T18:39:47.227Z,101187.59
2023-02-23T18:42:17.756Z,101184.63
2023-02-23T18:44:47.901Z,101187.88
2023-02-23T18:47:14.777Z,101192.88
2023-02-23T18:49:48.483Z,101194.63
2023-02-23T18:52:25.475Z,101182.03
2023-02-23T18:57:42.193Z,101192.91
2023-02-23T19:00:22.199Z,101197.56
2023-02-23T19:02:49.656Z,101191.63
2023-02-23T19:05:22.213Z,101201.34
2023-02-23T19:07:49.657Z,101201.25
2023-02-23T19:10:23.978Z,101204.00
2023-02-23T19:12:53.786Z,101205.00
2023-02-23T19:15:37.612Z,101212.84
2023-02-23T19:18:05.796Z,101207.50
2023-02-23T19:20:38.392Z,101210.13
2023-02-23T19:25:55.442Z,101221.19
2023-02-23T19:28:29.416Z,101211.91
2023-02-23T19:31:08.608Z,101216.69
2023-02-23T19:33:42.182Z,101212.94
2023-02-23T19:36:24.656Z,101215.84
2023-02-23T19:38:51.803Z,101216.16
2023-02-23T19:41:25.191Z,101214.19
2023-02-23T19:43:59.331Z,101221.94
2023-02-23T19:46:40.792Z,101214.44
2023-02-23T19:52:00.695Z,101220.06
2023-02-23T19:54:51.596Z,101213.75
2023-02-23T19:57:33.797Z,101216.75
2023-02-23T20:00:34.080Z,101216.66
2023-02-23T20:05:54.608Z,101208.56
2023-02-23T20:08:29.409Z,101205.66
2023-02-23T20:11:01.302Z,101211.25
2023-02-23T20:14:00.696Z,101209.69
2023-02-23T20:17:01.845Z,101207.38
2023-02-23T20:19:29.531Z,101206.88
2023-02-23T20:21:58.076Z,101203.38
2023-02-23T20:24:33.886Z,101214.22
2023-02-23T20:29:46.942Z,101219.41
2023-02-23T20:32:26.387Z,101212.34
2023-02-23T20:34:55.013Z,101213.59
2023-02-23T20:37:21.882Z,101214.19
2023-02-23T20:40:00.949Z,101213.25
2023-02-23T20:42:30.080Z,101208.69
2023-02-23T20:44:57.686Z,101212.88
2023-02-23T20:47:25.463Z,101217.53
2023-02-23T20:49:56.296Z,101225.91
2023-02-23T20:55:12.913Z,101226.03
2023-02-23T20:57:44.136Z,101215.91
2023-02-23T21:00:15.883Z,101219.91
2023-02-23T21:02:43.008Z,101212.50
2023-02-23T21:05:16.258Z,101210.94
2023-02-23T21:07:55.275Z,101215.91
2023-02-23T21:10:22.158Z,101217.09
2023-02-23T21:12:51.365Z,101226.53
2023-02-23T21:15:18.949Z,101217.22
2023-02-23T21:17:45.871Z,101216.50
2023-02-23T21:20:21.968Z,101220.22
2023-02-23T21:22:52.857Z,101227.69
2023-02-23T21:25:23.352Z,101217.63
2023-02-23T21:27:52.002Z,101216.25
2023-02-23T21:30:30.278Z,101217.16
2023-02-23T21:33:10.620Z,101218.88
2023-02-23T21:35:43.550Z,101210.81
2023-02-23T21:38:14.930Z,101212.81
2023-02-23T21:40:42.498Z,101218.75
2023-02-23T21:43:30.748Z,101215.84
2023-02-23T21:46:22.038Z,101221.81
2023-02-23T21:48:56.804Z,101217.34
2023-02-23T21:51:38.704Z,101217.03
2023-02-23T21:54:17.828Z,101212.41
2023-02-23T21:56:55.916Z,101217.13
2023-02-23T21:59:22.772Z,101215.75
2023-02-23T22:02:08.239Z,101218.06
2023-02-23T22:04:51.245Z,101222.44
2023-02-23T22:07:32.174Z,101215.78
2023-02-23T22:09:59.378Z,101220.16
2023-02-23T22:12:29.052Z,101207.84
2023-02-23T22:14:58.517Z,101214.66
2023-02-23T22:17:28.537Z,101208.28
2023-02-23T22:20:10.492Z,101214.06
2023-02-23T22:22:50.657Z,101208.31
2023-02-23T22:25:21.592Z,101202.28
2023-02-23T22:27:48.436Z,101203.88
2023-02-23T22:30:18.803Z,101198.56
2023-02-23T22:32:46.548Z,101197.34
2023-02-23T22:38:29.247Z,101201.88
2023-02-23T22:41:05.325Z,101204.03
2023-02-23T22:43:43.309Z,101213.78
2023-02-23T22:46:18.550Z,101207.19
2023-02-23T22:48:51.342Z,101192.84
2023-02-23T22:51:31.604Z,101193.16
2023-02-23T22:54:30.868Z,101193.78
2023-02-23T22:56:59.450Z,101205.88
2023-02-23T22:59:31.994Z,101207.09
2023-02-23T23:02:07.639Z,101214.25
2023-02-23T23:04:36.890Z,101210.16
2023-02-23T23:07:16.032Z,101204.41
2023-02-23T23:09:48.949Z,101203.38
2023-02-23T23:12:51.084Z,101189.75
2023-02-23T23:15:22.195Z,101192.75
2023-02-23T23:17:50.138Z,101201.69
2023-02-23T23:20:29.721Z,101195.41
2023-02-23T23:22:57.462Z,101192.28
2023-02-23T23:28:15.649Z,101192.72
2023-02-23T23:30:55.960Z,101191.81
2023-02-23T23:33:26.833Z,101182.13
2023-02-23T23:35:57.538Z,101181.69
2023-02-23T23:38:58.230Z,101183.78
2023-02-23T23:41:49.665Z,101180.28
2023-02-23T23:44:31.072Z,101177.25
2023-02-23T23:46:58.535Z,101182.38
2023-02-23T23:49:32.785Z,101182.59
2023-02-23T23:52:28.227Z,101182.09
2023-02-23T23:57:35.663Z,101180.81
